createdAt,value
2023-05-05T00:01:04.956Z,7.68
2023-05-05T00:03:33.249Z,7.67
2023-05-05T00:05:59.653Z,7.69
2023-05-05T00:08:25.948Z,7.68
2023-05-05T00:10:53.190Z,7.59
2023-05-05T00:13:20.733Z,7.52
2023-05-05T00:15:49.449Z,7.48
2023-05-05T00:18:17.167Z,7.48
2023-05-05T00:20:44.526Z,7.45
2023-05-05T00:23:10.855Z,7.42
2023-05-05T00:25:37.489Z,7.45
2023-05-05T00:28:03.953Z,7.38
2023-05-05T00:30:30.594Z,7.35
2023-05-05T00:32:57.172Z,7.35
2023-05-05T00:35:23.601Z,7.35
2023-05-05T00:37:49.916Z,7.44
2023-05-05T00:40:18.268Z,7.42
2023-05-05T00:42:47.228Z,7.40
2023-05-05T00:45:18.081Z,7.41
2023-05-05T00:48:05.486Z,7.37
2023-05-05T00:50:31.997Z,7.40
2023-05-05T00:53:03.187Z,7.43
2023-05-05T00:55:30.101Z,7.45
2023-05-05T00:57:58.223Z,7.43
2023-05-05T01:00:25.277Z,7.48
2023-05-05T01:02:52.423Z,7.44
2023-05-05T01:05:21.608Z,7.44
2023-05-05T01:08:25.046Z,7.45
2023-05-05T01:11:03.792Z,7.42
2023-05-05T01:13:30.157Z,7.44
2023-05-05T01:16:27.365Z,7.44
2023-05-05T01:19:04.777Z,7.47
2023-05-05T01:21:36.248Z,7.41
2023-05-05T01:24:33.389Z,7.34
2023-05-05T01:27:38.866Z,7.29
2023-05-05T01:30:20.399Z,7.26
2023-05-05T01:32:50.844Z,7.28
2023-05-05T01:35:22.550Z,7.26
2023-05-05T01:38:05.661Z,7.34
2023-05-05T01:40:38.945Z,7.24
2023-05-05T01:43:08.080Z,7.26
2023-05-05T01:45:39.225Z,7.24
2023-05-05T01:48:07.546Z,7.20
2023-05-05T01:50:35.239Z,7.19
2023-05-05T01:53:03.639Z,7.22
2023-05-05T01:55:32.049Z,7.22
2023-05-05T01:58:00.063Z,7.17
2023-05-05T02:00:27.860Z,7.14
2023-05-05T02:02:56.876Z,7.10
2023-05-05T02:05:26.372Z,7.11
2023-05-05T02:07:56.778Z,7.08
2023-05-05T02:10:23.442Z,7.11
2023-05-05T02:12:51.120Z,7.07
2023-05-05T02:15:18.777Z,7.08
2023-05-05T02:17:46.583Z,7.06
2023-05-05T02:20:14.517Z,7.07
2023-05-05T02:22:41.414Z,7.02
2023-05-05T02:25:09.276Z,7.06
2023-05-05T02:27:37.139Z,6.97
2023-05-05T02:30:08.555Z,6.97
2023-05-05T02:32:39.617Z,6.97
2023-05-05T02:35:18.652Z,6.98
2023-05-05T02:38:06.072Z,7.01
2023-05-05T02:40:34.481Z,6.96
2023-05-05T02:43:04.994Z,6.97
2023-05-05T02:45:32.349Z,6.92
2023-05-05T02:48:03.047Z,6.90
2023-05-05T02:50:30.894Z,6.82
2023-05-05T02:52:59.047Z,6.75
2023-05-05T02:55:36.269Z,6.74
2023-05-05T02:58:21.756Z,6.75
2023-05-05T03:00:55.728Z,6.68
2023-05-05T03:03:34.610Z,6.74
2023-05-05T03:06:07.394Z,6.66
2023-05-05T03:08:49.142Z,6.60
2023-05-05T03:11:31.755Z,6.60
2023-05-05T03:14:10.307Z,6.60
2023-05-05T03:16:39.331Z,6.62
2023-05-05T03:19:08.498Z,6.57
2023-05-05T03:21:35.220Z,6.53
2023-05-05T03:24:11.941Z,6.51
2023-05-05T03:26:38.221Z,6.46
2023-05-05T03:29:06.573Z,6.39
2023-05-05T03:31:33.318Z,6.42
2023-05-05T03:33:59.742Z,6.39
2023-05-05T03:36:29.430Z,6.35
2023-05-05T03:38:56.151Z,6.35
2023-05-05T03:41:23.494Z,6.32
2023-05-05T03:43:50.595Z,6.30
2023-05-05T03:46:17.352Z,6.27
2023-05-05T03:48:43.795Z,6.25
2023-05-05T03:51:10.324Z,6.21
2023-05-05T03:53:36.590Z,6.22
2023-05-05T03:56:02.937Z,6.14
2023-05-05T03:58:29.286Z,6.16
2023-05-05T04:00:55.600Z,6.16
2023-05-05T04:03:22.033Z,6.20
2023-05-05T04:05:48.830Z,6.16
2023-05-05T04:08:15.589Z,6.14
2023-05-05T04:10:41.925Z,6.08
2023-05-05T04:13:08.711Z,6.08
2023-05-05T04:15:35.037Z,6.11
2023-05-05T04:18:01.713Z,6.13
2023-05-05T04:20:28.050Z,6.16
2023-05-05T04:22:54.361Z,6.19
2023-05-05T04:25:20.657Z,6.23
2023-05-05T04:27:46.950Z,6.19
2023-05-05T04:30:13.470Z,6.19
2023-05-05T04:32:39.847Z,6.18
2023-05-05T04:35:06.833Z,6.23
2023-05-05T04:37:33.182Z,6.24
2023-05-05T04:39:59.531Z,6.29
2023-05-05T04:42:25.912Z,6.36
2023-05-05T04:44:52.337Z,6.43
2023-05-05T04:47:18.709Z,6.52
2023-05-05T04:49:45.061Z,6.61
2023-05-05T04:52:14.964Z,6.61
2023-05-05T04:54:41.307Z,6.58
2023-05-05T04:57:07.837Z,6.54
2023-05-05T04:59:34.763Z,6.61
2023-05-05T05:02:01.116Z,6.77
2023-05-05T05:04:27.831Z,6.78
2023-05-05T05:06:55.321Z,6.74
2023-05-05T05:09:22.786Z,6.79
2023-05-05T05:11:49.325Z,6.89
2023-05-05T05:14:15.647Z,7.02
2023-05-05T05:16:44.765Z,7.12
2023-05-05T05:19:11.197Z,7.43
2023-05-05T05:21:37.665Z,7.72
2023-05-05T05:24:05.001Z,7.93
2023-05-05T05:26:31.383Z,8.08
2023-05-05T05:28:57.795Z,8.28
2023-05-05T05:31:24.353Z,8.18
2023-05-05T05:33:50.963Z,8.13
2023-05-05T05:36:17.490Z,8.01
2023-05-05T05:38:43.944Z,8.03
2023-05-05T05:41:11.297Z,8.04
2023-05-05T05:43:37.629Z,8.02
2023-05-05T05:46:05.359Z,8.08
2023-05-05T05:48:32.634Z,7.93
2023-05-05T05:50:58.880Z,8.09
2023-05-05T05:53:25.139Z,7.92
2023-05-05T05:55:51.460Z,7.93
2023-05-05T05:58:18.346Z,8.10
2023-05-05T06:00:44.729Z,8.07
2023-05-05T06:03:11.314Z,8.24
2023-05-05T06:05:37.735Z,8.37
2023-05-05T06:08:04.471Z,8.45
2023-05-05T06:10:31.034Z,8.42
2023-05-05T06:12:57.496Z,8.55
2023-05-05T06:15:25.346Z,8.60
2023-05-05T06:17:51.723Z,8.92
2023-05-05T06:20:18.708Z,9.11
2023-05-05T06:22:45.455Z,9.25
2023-05-05T06:25:11.832Z,9.53
2023-05-05T06:27:38.238Z,9.58
2023-05-05T06:30:06.939Z,9.47
2023-05-05T06:32:36.438Z,9.83
2023-05-05T06:35:03.306Z,10.03
2023-05-05T06:37:29.796Z,10.14
2023-05-05T06:39:56.805Z,10.20
2023-05-05T06:42:23.133Z,10.07
2023-05-05T06:44:49.602Z,10.11
2023-05-05T06:47:16.001Z,10.04
2023-05-05T06:49:42.322Z,10.19
2023-05-05T06:52:08.646Z,10.18
2023-05-05T06:54:34.971Z,10.46
2023-05-05T06:57:01.705Z,10.40
2023-05-05T06:59:27.993Z,10.51
2023-05-05T07:01:54.353Z,10.58
2023-05-05T07:04:21.260Z,10.62
2023-05-05T07:06:47.543Z,10.68
2023-05-05T07:09:15.242Z,10.46
2023-05-05T07:11:43.311Z,10.67
2023-05-05T07:14:09.638Z,10.88
2023-05-05T07:16:37.144Z,11.00
2023-05-05T07:19:06.025Z,11.05
2023-05-05T07:21:36.359Z,11.26
2023-05-05T07:24:03.261Z,11.16
2023-05-05T07:26:29.620Z,11.29
2023-05-05T07:28:57.172Z,11.73
2023-05-05T07:31:23.593Z,11.80
2023-05-05T07:33:50.127Z,11.45
2023-05-05T07:36:19.556Z,11.00
2023-05-05T07:38:46.011Z,10.94
2023-05-05T07:41:12.936Z,11.04
2023-05-05T07:43:44.432Z,11.16
2023-05-05T07:46:11.261Z,11.08
2023-05-05T07:48:38.948Z,11.10
2023-05-05T07:51:05.246Z,11.30
2023-05-05T07:53:31.863Z,11.14
2023-05-05T07:55:58.323Z,11.33
2023-05-05T07:58:24.656Z,11.60
2023-05-05T08:00:51.272Z,11.45
2023-05-05T08:03:19.945Z,11.30
2023-05-05T08:05:46.794Z,11.33
2023-05-05T08:08:13.168Z,11.57
2023-05-05T08:10:40.094Z,11.69
2023-05-05T08:13:06.670Z,11.76
2023-05-05T08:15:33.067Z,11.95
2023-05-05T08:17:59.697Z,11.89
2023-05-05T08:20:28.770Z,11.69
2023-05-05T08:22:55.242Z,11.68
2023-05-05T08:25:21.656Z,11.77
2023-05-05T08:27:48.000Z,11.91
2023-05-05T08:30:16.415Z,11.97
2023-05-05T08:32:42.831Z,11.88
2023-05-05T08:35:09.672Z,11.82
2023-05-05T08:37:36.398Z,11.88
2023-05-05T08:40:03.260Z,11.91
2023-05-05T08:42:37.934Z,12.17
2023-05-05T08:45:10.354Z,12.17
2023-05-05T08:47:38.687Z,12.65
2023-05-05T08:50:05.836Z,12.92
2023-05-05T08:52:39.708Z,13.03
2023-05-05T08:55:14.245Z,13.05
2023-05-05T08:57:52.380Z,13.02
2023-05-05T09:00:19.916Z,12.98
2023-05-05T09:02:47.469Z,13.31
2023-05-05T09:05:14.058Z,13.39
2023-05-05T09:07:41.277Z,13.42
2023-05-05T09:10:11.788Z,13.33
2023-05-05T09:12:42.078Z,12.94
2023-05-05T09:15:13.304Z,13.17
2023-05-05T09:17:40.623Z,13.17
2023-05-05T09:20:09.211Z,13.15
2023-05-05T09:22:40.318Z,12.89
2023-05-05T09:25:10.228Z,13.28
2023-05-05T09:27:38.762Z,13.59
2023-05-05T09:30:05.943Z,13.80
2023-05-05T09:32:53.586Z,13.67
2023-05-05T09:35:21.174Z,13.98
2023-05-05T09:37:48.068Z,13.94
2023-05-05T09:40:16.542Z,13.97
2023-05-05T09:42:44.493Z,14.12
2023-05-05T09:45:19.713Z,14.48
2023-05-05T09:47:47.326Z,14.62
2023-05-05T09:50:15.886Z,14.52
2023-05-05T09:52:43.339Z,14.50
2023-05-05T09:55:18.058Z,14.34
2023-05-05T09:57:44.396Z,14.14
2023-05-05T10:00:12.367Z,14.00
2023-05-05T10:02:39.366Z,13.99
2023-05-05T10:05:17.737Z,14.09
2023-05-05T10:07:46.264Z,13.84
2023-05-05T10:10:14.760Z,13.82
2023-05-05T10:12:41.231Z,13.68
2023-05-05T10:15:09.700Z,13.62
2023-05-05T10:17:57.973Z,13.77
2023-05-05T10:20:33.287Z,13.72
2023-05-05T10:23:04.503Z,13.75
2023-05-05T10:25:35.381Z,13.78
2023-05-05T10:28:06.259Z,13.64
2023-05-05T10:30:41.885Z,13.77
2023-05-05T10:35:53.648Z,14.14
2023-05-05T10:38:22.695Z,14.29
2023-05-05T10:40:50.413Z,14.44
2023-05-05T10:43:17.634Z,14.37
2023-05-05T10:45:44.703Z,14.55
2023-05-05T10:48:25.459Z,14.41
2023-05-05T10:50:56.612Z,14.74
2023-05-05T10:53:30.796Z,15.32
2023-05-05T10:56:14.108Z,15.36
2023-05-05T10:58:56.081Z,14.98
2023-05-05T11:01:36.416Z,15.25
2023-05-05T11:04:21.937Z,15.34
2023-05-05T11:07:22.434Z,15.78
2023-05-05T11:10:01.365Z,15.95
2023-05-05T11:12:28.635Z,15.72
2023-05-05T11:15:26.153Z,15.52
2023-05-05T11:17:54.320Z,15.87
2023-05-05T11:20:36.617Z,15.78
2023-05-05T11:23:02.917Z,15.76
2023-05-05T11:25:35.251Z,15.45
2023-05-05T11:28:10.017Z,15.40
2023-05-05T11:30:56.948Z,15.50
2023-05-05T11:33:37.043Z,15.48
2023-05-05T11:36:08.850Z,15.84
2023-05-05T11:38:41.322Z,15.68
2023-05-05T11:41:28.469Z,15.88
2023-05-05T11:44:13.896Z,16.02
2023-05-05T11:47:01.144Z,15.86
2023-05-05T11:49:34.417Z,15.53
2023-05-05T11:52:07.937Z,15.66
2023-05-05T11:54:40.423Z,15.34
2023-05-05T11:57:08.316Z,15.25
2023-05-05T11:59:37.083Z,15.55
2023-05-05T12:02:03.978Z,15.47
2023-05-05T12:04:31.464Z,15.31
2023-05-05T12:06:58.755Z,15.29
2023-05-05T12:09:25.258Z,15.45
2023-05-05T12:11:53.501Z,15.74
2023-05-05T12:14:20.779Z,15.72
2023-05-05T12:17:20.688Z,15.50
2023-05-05T12:19:52.193Z,15.66
2023-05-05T12:22:20.789Z,15.70
2023-05-05T12:25:02.747Z,15.57
2023-05-05T12:27:29.388Z,15.20
2023-05-05T12:29:57.330Z,15.13
2023-05-05T12:32:27.947Z,15.26
2023-05-05T12:34:57.281Z,15.03
2023-05-05T12:37:25.823Z,15.08
2023-05-05T12:39:54.780Z,15.05
2023-05-05T12:42:22.045Z,14.98
2023-05-05T12:44:48.960Z,14.73
2023-05-05T12:47:28.854Z,14.54
2023-05-05T12:49:55.172Z,14.57
2023-05-05T12:52:21.734Z,14.48
2023-05-05T12:54:58.385Z,14.42
2023-05-05T12:57:25.222Z,14.40
2023-05-05T12:59:53.221Z,14.32
2023-05-05T13:02:20.698Z,14.26
2023-05-05T13:04:54.531Z,14.31
2023-05-05T13:07:21.873Z,14.33
2023-05-05T13:09:49.733Z,14.26
2023-05-05T13:12:19.132Z,14.32
2023-05-05T13:14:46.638Z,14.33
2023-05-05T13:17:14.072Z,14.33
2023-05-05T13:19:46.170Z,14.36
2023-05-05T13:22:13.857Z,14.38
2023-05-05T13:24:50.774Z,14.31
2023-05-05T13:27:18.398Z,14.25
2023-05-05T13:29:44.728Z,14.26
2023-05-05T13:32:11.060Z,14.05
2023-05-05T13:34:38.895Z,14.08
2023-05-05T13:37:05.305Z,14.16
2023-05-05T13:39:31.783Z,14.25
2023-05-05T13:41:58.125Z,14.29
2023-05-05T13:44:24.488Z,14.22
2023-05-05T13:46:50.825Z,13.83
2023-05-05T13:49:17.294Z,13.76
2023-05-05T13:51:43.755Z,13.42
2023-05-05T13:54:10.418Z,13.30
2023-05-05T13:56:36.977Z,13.11
2023-05-05T13:59:03.527Z,12.88
2023-05-05T14:01:30.278Z,12.74
2023-05-05T14:03:57.761Z,12.42
2023-05-05T14:06:25.711Z,12.27
2023-05-05T14:08:52.080Z,12.20
2023-05-05T14:11:20.676Z,12.18
2023-05-05T14:13:47.374Z,12.13
2023-05-05T14:16:13.912Z,12.00
2023-05-05T14:18:40.586Z,11.97
2023-05-05T14:21:06.980Z,11.95
2023-05-05T14:23:33.352Z,12.01
2023-05-05T14:25:59.717Z,11.91
2023-05-05T14:28:26.369Z,11.97
2023-05-05T14:30:52.803Z,12.01
2023-05-05T14:33:19.106Z,12.04
2023-05-05T14:35:45.401Z,12.03
2023-05-05T14:38:11.708Z,11.95
2023-05-05T14:40:38.012Z,11.98
2023-05-05T14:43:04.614Z,12.03
2023-05-05T14:45:31.605Z,11.98
2023-05-05T14:47:57.928Z,11.98
2023-05-05T14:50:24.331Z,12.06
2023-05-05T14:52:50.741Z,12.06
2023-05-05T14:55:17.140Z,12.22
2023-05-05T14:57:43.432Z,12.32
2023-05-05T15:00:10.853Z,12.35
2023-05-05T15:02:37.219Z,12.48
2023-05-05T15:05:03.855Z,12.44
2023-05-05T15:07:30.334Z,12.54
2023-05-05T15:09:56.698Z,12.46
2023-05-05T15:12:23.119Z,12.27
2023-05-05T15:14:49.491Z,12.42
2023-05-05T15:17:15.778Z,12.40
2023-05-05T15:19:44.423Z,12.37
2023-05-05T15:22:10.812Z,12.23
2023-05-05T15:24:37.192Z,12.28
2023-05-05T15:27:03.984Z,12.27
2023-05-05T15:29:30.433Z,12.34
2023-05-05T15:31:56.834Z,12.26
2023-05-05T15:34:23.220Z,12.05
2023-05-05T15:36:49.498Z,12.05
2023-05-05T15:39:15.881Z,12.06
2023-05-05T15:41:42.146Z,12.08
2023-05-05T15:44:12.038Z,12.01
2023-05-05T15:46:39.061Z,12.11
2023-05-05T15:49:05.504Z,12.09
2023-05-05T15:51:32.162Z,12.14
2023-05-05T15:53:59.319Z,12.08
2023-05-05T15:56:29.269Z,12.05
2023-05-05T15:58:56.546Z,12.14
2023-05-05T16:01:22.878Z,12.22
2023-05-05T16:03:49.205Z,12.13
2023-05-05T16:06:15.584Z,11.97
2023-05-05T16:08:42.093Z,11.97
2023-05-05T16:11:08.390Z,11.89
2023-05-05T16:13:34.973Z,11.86
2023-05-05T16:16:01.412Z,11.89
2023-05-05T16:18:27.673Z,11.91
2023-05-05T16:20:53.955Z,11.85
2023-05-05T16:23:20.564Z,11.63
2023-05-05T16:25:47.176Z,11.69
2023-05-05T16:28:13.552Z,11.66
2023-05-05T16:30:42.545Z,11.64
2023-05-05T16:33:08.837Z,11.44
2023-05-05T16:35:36.100Z,11.49
2023-05-05T16:38:02.504Z,11.47
2023-05-05T16:40:29.351Z,11.44
2023-05-05T16:42:55.725Z,11.40
2023-05-05T16:45:22.420Z,11.38
2023-05-05T16:47:48.727Z,11.34
2023-05-05T16:50:17.266Z,11.29
2023-05-05T16:52:43.606Z,11.25
2023-05-05T16:55:10.021Z,11.24
2023-05-05T16:57:36.478Z,11.23
2023-05-05T17:00:03.368Z,11.24
2023-05-05T17:02:29.656Z,11.29
2023-05-05T17:04:56.036Z,11.24
2023-05-05T17:07:22.519Z,11.21
2023-05-05T17:09:48.848Z,11.21
2023-05-05T17:12:15.317Z,11.24
2023-05-05T17:14:41.767Z,11.22
2023-05-05T17:17:09.247Z,11.18
2023-05-05T17:19:35.701Z,11.17
2023-05-05T17:22:02.089Z,11.17
2023-05-05T17:24:28.471Z,11.12
2023-05-05T17:26:55.333Z,11.03
2023-05-05T17:29:23.056Z,10.97
2023-05-05T17:31:50.321Z,10.97
2023-05-05T17:34:16.858Z,10.92
2023-05-05T17:36:43.206Z,10.84
2023-05-05T17:39:11.241Z,10.84
2023-05-05T17:41:37.752Z,10.83
2023-05-05T17:44:04.286Z,10.86
2023-05-05T17:46:30.695Z,10.83
2023-05-05T17:48:57.151Z,10.82
2023-05-05T17:51:23.588Z,10.77
2023-05-05T17:53:49.904Z,10.79
2023-05-05T17:56:16.275Z,10.79
2023-05-05T17:58:42.603Z,10.77
2023-05-05T18:01:13.248Z,10.80
2023-05-05T18:03:41.012Z,10.78
2023-05-05T18:06:07.607Z,10.56
2023-05-05T18:08:33.893Z,10.36
2023-05-05T18:11:00.214Z,10.29
2023-05-05T18:13:26.478Z,10.19
2023-05-05T18:15:52.881Z,10.19
2023-05-05T18:18:19.199Z,10.21
2023-05-05T18:20:45.513Z,10.27
2023-05-05T18:23:11.881Z,10.18
2023-05-05T18:25:38.204Z,10.15
2023-05-05T18:28:04.963Z,9.93
2023-05-05T18:30:32.299Z,9.82
2023-05-05T18:32:58.676Z,9.80
2023-05-05T18:35:25.109Z,9.74
2023-05-05T18:37:52.234Z,9.77
2023-05-05T18:40:18.581Z,9.77
2023-05-05T18:42:44.894Z,9.76
2023-05-05T18:45:11.592Z,9.58
2023-05-05T18:47:39.149Z,9.41
2023-05-05T18:50:06.443Z,9.37
2023-05-05T18:52:33.304Z,9.21
2023-05-05T18:54:59.783Z,9.11
2023-05-05T18:57:27.174Z,9.00
2023-05-05T18:59:53.485Z,8.99
2023-05-05T19:02:19.843Z,8.82
2023-05-05T19:04:46.214Z,8.73
2023-05-05T19:07:18.368Z,8.62
2023-05-05T19:09:50.357Z,8.43
2023-05-05T19:12:16.631Z,8.34
2023-05-05T19:14:42.907Z,8.37
2023-05-05T19:17:09.266Z,8.28
2023-05-05T19:19:35.625Z,8.22
2023-05-05T19:22:03.035Z,8.15
2023-05-05T19:24:30.175Z,8.04
2023-05-05T19:26:56.505Z,7.94
2023-05-05T19:29:22.859Z,7.97
2023-05-05T19:31:49.383Z,7.95
2023-05-05T19:34:15.721Z,7.90
2023-05-05T19:36:42.015Z,7.90
2023-05-05T19:39:08.434Z,7.90
2023-05-05T19:41:35.385Z,7.87
2023-05-05T19:44:01.764Z,7.91
2023-05-05T19:46:28.122Z,7.89
2023-05-05T19:48:54.570Z,7.78
2023-05-05T19:51:21.111Z,7.80
2023-05-05T19:53:47.709Z,7.83
2023-05-05T19:56:13.985Z,7.86
2023-05-05T19:58:53.349Z,7.72
2023-05-05T20:01:19.700Z,7.68
2023-05-05T20:03:46.155Z,7.68
2023-05-05T20:06:12.581Z,7.68
2023-05-05T20:08:38.968Z,7.66
2023-05-05T20:11:05.297Z,7.65
2023-05-05T20:13:32.245Z,7.56
2023-05-05T20:15:58.673Z,7.53
2023-05-05T20:18:24.968Z,7.44
2023-05-05T20:20:51.259Z,7.47
2023-05-05T20:23:17.600Z,7.56
2023-05-05T20:25:43.868Z,7.43
2023-05-05T20:28:10.248Z,7.45
2023-05-05T20:30:37.954Z,7.48
2023-05-05T20:33:04.353Z,7.36
2023-05-05T20:35:30.890Z,7.31
2023-05-05T20:37:57.181Z,7.29
2023-05-05T20:40:23.439Z,7.26
2023-05-05T20:42:50.327Z,7.21
2023-05-05T20:45:16.699Z,7.17
2023-05-05T20:47:43.453Z,7.15
2023-05-05T20:50:11.163Z,7.11
2023-05-05T20:52:37.754Z,7.07
2023-05-05T20:55:04.358Z,7.03
2023-05-05T20:57:30.772Z,7.04
2023-05-05T20:59:57.298Z,6.97
2023-05-05T21:02:23.738Z,6.97
2023-05-05T21:04:50.316Z,6.96
2023-05-05T21:07:16.648Z,6.96
2023-05-05T21:09:46.372Z,6.99
2023-05-05T21:12:12.758Z,6.94
2023-05-05T21:14:43.841Z,6.88
2023-05-05T21:17:10.115Z,6.88
2023-05-05T21:19:36.560Z,6.90
2023-05-05T21:22:02.943Z,6.82
2023-05-05T21:24:29.237Z,6.83
2023-05-05T21:26:56.200Z,6.91
2023-05-05T21:29:24.522Z,6.85
2023-05-05T21:31:50.908Z,6.84
2023-05-05T21:34:18.203Z,6.87
2023-05-05T21:36:44.514Z,6.79
2023-05-05T21:39:12.017Z,6.78
2023-05-05T21:41:38.603Z,6.69
2023-05-05T21:44:05.267Z,6.69
2023-05-05T21:46:31.650Z,6.61
2023-05-05T21:48:58.131Z,6.62
2023-05-05T21:51:24.575Z,6.54
2023-05-05T21:53:50.852Z,6.50
2023-05-05T21:56:17.155Z,6.49
2023-05-05T21:58:43.523Z,6.57
2023-05-05T22:01:09.836Z,6.63
2023-05-05T22:03:36.223Z,6.54
2023-05-05T22:06:02.645Z,6.49
2023-05-05T22:08:28.957Z,6.49
2023-05-05T22:10:55.275Z,6.47
2023-05-05T22:13:21.659Z,6.30
2023-05-05T22:15:47.996Z,6.32
2023-05-05T22:18:15.128Z,6.23
2023-05-05T22:20:41.539Z,6.24
2023-05-05T22:23:07.919Z,6.36
2023-05-05T22:25:34.268Z,6.25
2023-05-05T22:28:00.656Z,6.59
2023-05-05T22:30:26.975Z,6.56
2023-05-05T22:32:53.370Z,6.68
2023-05-05T22:35:20.032Z,6.96
2023-05-05T22:37:46.395Z,6.84
2023-05-05T22:40:13.383Z,6.84
2023-05-05T22:42:39.808Z,6.83
2023-05-05T22:45:06.700Z,6.87
2023-05-05T22:47:33.172Z,6.90
2023-05-05T22:49:59.871Z,6.79
2023-05-05T22:52:28.297Z,6.53
2023-05-05T22:54:55.333Z,6.19
2023-05-05T22:57:21.667Z,6.45
2023-05-05T22:59:47.974Z,6.55
2023-05-05T23:02:14.313Z,6.57
2023-05-05T23:04:40.971Z,6.65
2023-05-05T23:07:07.420Z,6.67
2023-05-05T23:09:33.784Z,6.79
2023-05-05T23:12:00.520Z,6.70
2023-05-05T23:14:26.803Z,6.67
2023-05-05T23:16:53.152Z,6.67
2023-05-05T23:19:19.496Z,6.83
2023-05-05T23:21:53.208Z,6.72
2023-05-05T23:24:19.833Z,6.58
2023-05-05T23:26:46.384Z,6.80
2023-05-05T23:29:12.747Z,6.57
2023-05-05T23:31:39.034Z,6.66
2023-05-05T23:34:05.339Z,6.69
2023-05-05T23:36:31.845Z,6.58
2023-05-05T23:38:58.179Z,6.85
2023-05-05T23:41:24.522Z,6.87
2023-05-05T23:43:50.943Z,6.78
2023-05-05T23:46:17.274Z,6.73
2023-05-05T23:48:43.540Z,6.24
2023-05-05T23:51:09.807Z,6.47
2023-05-05T23:53:36.097Z,6.58
2023-05-05T23:56:02.774Z,6.59
2023-05-05T23:58:29.103Z,6.53
